San Rafael — WCW8517 — position and weather

sailwx.info

Track history (hours):
 
Tides and Currents Weather Stations Pressure Air Temp Water Temp Dewpoint Dewpoint Depression Visibility Wind Speed Wind Dir Waves Ship Positions

San Rafael

Owner: BUFFALO MARINE SERVICE INC, HOUSTON, TX. More information available from US FCC via Universal Licensing System and Coast Guard Vessel Documentation Center.

Last reported at 2018-Jun-25 17:30 UTC. Time now 2018-Jun-25 17:34 UTC.
Position N 30°02' W 094°02'.

Length 18 m.

Type: Tug. MMSI: 366941860.

Date/timePositionNaut miles runAvg speedWind from/ knotsBaromVisibWave heightAir tempDewpointWater temp
2018-Jun-25 17:30N 30°02' W 094°02'0 0.0
2018-Jun-25 17:00N 30°02' W 094°02'0 0.0
2018-Jun-25 16:31N 30°02' W 094°02'0 0.0
2018-Jun-25 16:00N 30°02' W 094°02'0 0.0
2018-Jun-25 15:30N 30°02' W 094°02'0 0.0
2018-Jun-25 15:00N 30°02' W 094°02'1 2.2
2018-Jun-25 14:30N 30°01' W 094°01'3 6.4
2018-Jun-25 14:00N 30°01' W 093°57'3 6.0
2018-Jun-25 13:30N 29°59' W 093°54'0 0.9
2018-Jun-25 13:00N 29°60' W 093°55'0 0.0
2018-Jun-25 12:31N 29°60' W 093°55'0 0.0
2018-Jun-25 12:00N 29°60' W 093°55'0 0.0
2018-Jun-25 11:30N 29°60' W 093°55'0 0.0
2018-Jun-25 11:00N 29°60' W 093°55'0 0.0
2018-Jun-25 10:30N 29°60' W 093°55'0 0.0
2018-Jun-25 10:00N 29°60' W 093°55'0 0.0
2018-Jun-25 09:30N 29°60' W 093°55'0 0.0
2018-Jun-25 09:00N 29°60' W 093°55'0 0.0
2018-Jun-25 08:31N 29°60' W 093°55'0 0.0
2018-Jun-25 08:00N 29°60' W 093°55'0 0.0
2018-Jun-25 07:30N 29°60' W 093°55'0 0.0
2018-Jun-25 07:00N 29°60' W 093°55'0 0.0
2018-Jun-25 06:30N 29°60' W 093°55'0 0.0
2018-Jun-25 06:00N 29°60' W 093°55'0 0.0
2018-Jun-25 05:31N 29°60' W 093°55'0 0.0
2018-Jun-25 05:01N 29°60' W 093°55'0 0.0
2018-Jun-25 04:30N 29°60' W 093°55'0 0.0
2018-Jun-25 04:00N 29°60' W 093°55'0 0.0
2018-Jun-25 03:30N 29°60' W 093°55'0 0.0
2018-Jun-25 03:00N 29°60' W 093°55'1 1.4
2018-Jun-25 02:30N 29°59' W 093°54'3 5.5
2018-Jun-25 02:00N 29°58' W 093°51'3 6.4
2018-Jun-25 01:31N 29°55' W 093°53'3 5.8
2018-Jun-25 01:00N 29°53' W 093°56'3 5.1
2018-Jun-25 00:30N 29°50' W 093°57'2 4.4
2018-Jun-25 00:00N 29°49' W 093°59'0 0.0
2018-Jun-24 23:30N 29°49' W 093°59'0 0.0
2018-Jun-24 23:00N 29°49' W 093°59'0 0.1
2018-Jun-24 22:30N 29°49' W 093°59'0 0.9
2018-Jun-24 22:00N 29°49' W 093°60'3 5.8
2018-Jun-24 21:30N 29°47' W 094°02'3 5.7
2018-Jun-24 21:00N 29°45' W 094°04'3 5.6
2018-Jun-24 20:30N 29°43' W 094°07'3 6.1
2018-Jun-24 20:00N 29°41' W 094°10'3 5.8
2018-Jun-24 19:30N 29°40' W 094°13'3 5.6
2018-Jun-24 19:00N 29°39' W 094°16'3 5.4
2018-Jun-24 18:30N 29°38' W 094°18'3 5.0
2018-Jun-24 17:59N 29°37' W 094°21'3 5.4
2018-Jun-24 17:29N 29°36' W 094°24'25 2.1
2018-Jun-24 05:34N 29°30' W 094°52'1 7.5
2018-Jun-24 05:26N 29°31' W 094°53'4 7.7
2018-Jun-24 04:59N 29°34' W 094°55'4 7.9
2018-Jun-24 04:30N 29°37' W 094°57'4 8.0
2018-Jun-24 03:57N 29°41' W 094°59'4 0.3
2018-Jun-23 11:20N 29°44' W 095°03'0 0.0
2018-Jun-23 09:03N 29°44' W 095°03'0 0.1
2018-Jun-23 08:59N 29°44' W 095°03'0 0.1
2018-Jun-23 08:30N 29°44' W 095°03'0 0.0
2018-Jun-23 08:00N 29°44' W 095°03'0 0.0
2018-Jun-23 07:30N 29°44' W 095°03'0 0.0
2018-Jun-23 07:00N 29°44' W 095°03'0 0.0
2018-Jun-23 06:30N 29°44' W 095°03'0 0.0
2018-Jun-23 06:00N 29°44' W 095°03'0 0.0
2018-Jun-23 05:30N 29°44' W 095°03'0 0.0
2018-Jun-23 05:00N 29°44' W 095°03'2 4.3
2018-Jun-23 04:30N 29°46' W 095°04'2 3.4
2018-Jun-23 04:00N 29°46' W 095°06'0 0.0
2018-Jun-23 03:30N 29°46' W 095°06'0 0.0
2018-Jun-23 03:00N 29°46' W 095°06'0 0.0
2018-Jun-23 02:29N 29°46' W 095°06'0 0.0
2018-Jun-23 01:57N 29°46' W 095°06'0 0.0
2018-Jun-22 13:56N 29°46' W 095°06'0 0.0
2018-Jun-22 13:03N 29°46' W 095°06'0 0.0
2018-Jun-22 08:51N 29°46' W 095°06'0 0.0
2018-Jun-22 08:30N 29°46' W 095°06'0 0.0
2018-Jun-22 07:58N 29°46' W 095°06'0 0.0
2018-Jun-22 07:28N 29°46' W 095°06'0 0.0
2018-Jun-22 06:53N 29°46' W 095°06'0 0.0
2018-Jun-22 06:27N 29°46' W 095°06'0 0.0
2018-Jun-22 05:59N 29°46' W 095°06'0 0.0
2018-Jun-22 05:30N 29°46' W 095°06'0 0.0
2018-Jun-22 05:00N 29°46' W 095°06'0 0.0
2018-Jun-22 04:30N 29°46' W 095°06'0 0.0
2018-Jun-22 04:00N 29°46' W 095°06'0 0.0
2018-Jun-22 03:30N 29°46' W 095°06'0 0.0
2018-Jun-22 02:37N 29°46' W 095°06'0 0.0
2018-Jun-22 02:15N 29°46' W 095°06'0 0.0
2018-Jun-22 01:37N 29°46' W 095°06'0 0.0
2018-Jun-22 01:26N 29°46' W 095°06'0 0.0
2018-Jun-21 23:56N 29°46' W 095°06'0 0.0
2018-Jun-21 23:07N 29°46' W 095°06'0 0.0
2018-Jun-21 22:49N 29°46' W 095°06'0 0.3
2018-Jun-21 22:28N 29°47' W 095°06'0 0.1
2018-Jun-21 21:56N 29°47' W 095°06'0 0.1
2018-Jun-21 21:26N 29°47' W 095°06'0 0.0
2018-Jun-21 20:48N 29°47' W 095°06'0 0.0
2018-Jun-21 20:13N 29°47' W 095°06'0 0.0
2018-Jun-21 19:58N 29°47' W 095°06'0 0.0
2018-Jun-21 19:09N 29°47' W 095°06'0 0.0
2018-Jun-21 19:00N 29°47' W 095°06'0 0.0
2018-Jun-21 18:30N 29°47' W 095°06'0 0.0
2018-Jun-21 08:46N 29°46' W 095°06'0 0.0
2018-Jun-21 08:12N 29°46' W 095°06'0 0.0
2018-Jun-21 07:57N 29°46' W 095°06'5 3.2
2018-Jun-21 06:30N 29°44' W 095°02'3 6.6
2018-Jun-21 05:59N 29°41' W 094°59'1 2.0
2018-Jun-21 05:30N 29°41' W 095°00'0 0.0
2018-Jun-21 04:59N 29°41' W 095°00'0 0.0
2018-Jun-21 04:29N 29°41' W 095°00'0 0.0
2018-Jun-21 03:59N 29°41' W 095°00'0 0.0
2018-Jun-21 03:29N 29°41' W 095°00'0 0.0
2018-Jun-21 02:58N 29°41' W 095°00'0 0.0
2018-Jun-21 02:28N 29°41' W 095°00'0 0.0
2018-Jun-21 02:00N 29°41' W 095°00'0 0.0
2018-Jun-21 01:28N 29°41' W 095°00'0 0.0
2018-Jun-21 01:00N 29°41' W 095°00'0 0.0
2018-Jun-21 00:29N 29°41' W 095°00'0 0.0
2018-Jun-21 00:00N 29°41' W 095°00'0 0.0
2018-Jun-20 23:10N 29°41' W 095°00'0 0.0
2018-Jun-20 22:57N 29°41' W 095°00'0 0.0
2018-Jun-20 22:23N 29°41' W 095°00'0 0.0
2018-Jun-20 21:54N 29°41' W 095°00'0 0.0
2018-Jun-20 21:13N 29°41' W 095°00'0 0.0
2018-Jun-20 20:59N 29°41' W 095°00'0 0.0
2018-Jun-20 20:28N 29°41' W 095°00'0 0.6
2018-Jun-20 20:00N 29°41' W 095°00'0 0.7
2018-Jun-20 19:30N 29°41' W 094°60'4 0.4
2018-Jun-20 10:01N 29°44' W 095°03'0 0.0
2018-Jun-20 09:38N 29°44' W 095°03'0 0.0
2018-Jun-20 09:29N 29°44' W 095°03'4 0.5
2018-Jun-20 01:51N 29°46' W 095°07'0 0.0
2018-Jun-20 01:30N 29°46' W 095°07'0 0.0
2018-Jun-20 01:00N 29°46' W 095°07'5 0.7
2018-Jun-19 17:54N 29°44' W 095°02'3 7.2
2018-Jun-19 17:30N 29°42' W 094°60'4 7.8
2018-Jun-19 17:00N 29°38' W 094°58'3 5.2
2018-Jun-19 16:30N 29°37' W 095°00'0 0.0
2018-Jun-19 16:00N 29°37' W 095°00'0 0.0
2018-Jun-19 15:30N 29°37' W 095°00'0 0.0
2018-Jun-19 15:00N 29°37' W 095°00'0 0.0
2018-Jun-19 14:30N 29°37' W 095°00'0 0.0
2018-Jun-19 14:00N 29°37' W 095°00'0 0.0
2018-Jun-19 13:30N 29°37' W 095°00'0 0.0
2018-Jun-19 13:00N 29°37' W 095°00'0 0.0
2018-Jun-19 12:30N 29°37' W 095°00'0 0.0
2018-Jun-19 12:00N 29°37' W 095°00'0 0.0
2018-Jun-19 11:30N 29°37' W 095°00'0 0.0
2018-Jun-19 11:00N 29°37' W 095°00'0 0.0
2018-Jun-19 10:30N 29°37' W 095°00'0 0.0
2018-Jun-19 10:00N 29°37' W 095°00'0 0.0
2018-Jun-19 09:30N 29°37' W 095°00'0 0.0
2018-Jun-19 09:00N 29°37' W 095°00'0 0.0
2018-Jun-19 08:28N 29°37' W 095°00'0 0.0
2018-Jun-19 08:00N 29°37' W 095°00'0 0.0
2018-Jun-19 07:29N 29°37' W 095°00'0 0.0
2018-Jun-19 06:59N 29°37' W 095°00'0 0.0
2018-Jun-19 06:30N 29°37' W 095°00'0 0.0
2018-Jun-19 06:00N 29°37' W 095°00'0 0.0
2018-Jun-19 05:28N 29°37' W 095°00'0 0.0
2018-Jun-19 05:00N 29°37' W 095°00'0 0.0
2018-Jun-19 04:30N 29°37' W 095°00'0 0.0
2018-Jun-19 04:00N 29°37' W 095°00'0 0.0
2018-Jun-19 03:30N 29°37' W 095°00'0 0.0
2018-Jun-19 03:00N 29°37' W 095°00'0 0.0
2018-Jun-19 02:30N 29°37' W 095°00'0 0.0
2018-Jun-19 01:58N 29°37' W 095°00'0 0.0
2018-Jun-19 01:30N 29°37' W 095°00'0 0.0
2018-Jun-19 01:00N 29°37' W 095°00'0 0.0
2018-Jun-19 00:30N 29°37' W 095°00'0 0.1
2018-Jun-19 00:00N 29°37' W 095°00'0 0.6
2018-Jun-18 23:30N 29°37' W 095°01'0 0.0
2018-Jun-18 23:00N 29°37' W 095°01'0 0.0
2018-Jun-18 22:30N 29°37' W 095°01'0 0.0
2018-Jun-18 22:00N 29°37' W 095°01'1 2.7
2018-Jun-18 21:30N 29°37' W 094°59'2 3.9
2018-Jun-18 21:00N 29°38' W 094°58'3 6.3
2018-Jun-18 20:30N 29°41' W 094°59'  
2018-Jun-16 04:55N 29°44' W 095°02'3 6.9
2018-Jun-16 04:30N 29°42' W 094°60'4 7.6
2018-Jun-16 04:00N 29°38' W 094°58'2 4.5
2018-Jun-16 03:30N 29°37' W 094°60'0 0.7
2018-Jun-16 03:00N 29°37' W 095°00'0 0.0
2018-Jun-16 02:30N 29°37' W 095°00'0 0.0
2018-Jun-16 02:00N 29°37' W 095°00'0 0.0
2018-Jun-16 01:30N 29°37' W 095°00'0 0.0
2018-Jun-16 01:00N 29°37' W 095°00'0 0.0
2018-Jun-16 00:29N 29°37' W 095°00'0 0.0
2018-Jun-16 00:00N 29°37' W 095°00'0 0.0
2018-Jun-15 23:30N 29°37' W 095°00'0 0.0
2018-Jun-15 23:00N 29°37' W 095°00'0 0.0
2018-Jun-15 22:30N 29°37' W 095°00'0 0.0
2018-Jun-15 22:00N 29°37' W 095°00'0 0.0
2018-Jun-15 21:30N 29°37' W 095°00'0 0.0
2018-Jun-15 20:57N 29°37' W 095°00'0 0.0
2018-Jun-15 20:29N 29°37' W 095°00'0 0.0
2018-Jun-15 20:00N 29°37' W 095°00'0 0.0
2018-Jun-15 19:30N 29°37' W 095°00'0 0.0
2018-Jun-15 19:00N 29°37' W 095°00'0 0.0
2018-Jun-15 18:30N 29°37' W 095°00'0 0.0
2018-Jun-15 18:00N 29°37' W 095°00'0 0.0
2018-Jun-15 17:30N 29°37' W 095°00'  
Track history (hours):
 
Tides and Currents Weather Stations Pressure Air Temp Water Temp Dewpoint Dewpoint Depression Visibility Wind Speed Wind Dir Waves Ship Positions

San Rafael

Owner: BUFFALO MARINE SERVICE INC, HOUSTON, TX. More information available from US FCC via Universal Licensing System and Coast Guard Vessel Documentation Center.

Last reported at 2018-Jun-25 17:30 UTC. Time now 2018-Jun-25 17:34 UTC.
Position N 30°02' W 094°02'.

Length 18 m.

Type: Tug. MMSI: 366941860.

Date/timePositionNaut miles runAvg speedWind from/ knotsBaromVisibWave heightAir tempDewpointWater temp
2018-Jun-25 17:30N 30°02' W 094°02'0 0.0
2018-Jun-25 17:00N 30°02' W 094°02'0 0.0
2018-Jun-25 16:31N 30°02' W 094°02'0 0.0
2018-Jun-25 16:00N 30°02' W 094°02'0 0.0
2018-Jun-25 15:30N 30°02' W 094°02'0 0.0
2018-Jun-25 15:00N 30°02' W 094°02'1 2.2
2018-Jun-25 14:30N 30°01' W 094°01'3 6.4
2018-Jun-25 14:00N 30°01' W 093°57'3 6.0
2018-Jun-25 13:30N 29°59' W 093°54'0 0.9
2018-Jun-25 13:00N 29°60' W 093°55'0 0.0
2018-Jun-25 12:31N 29°60' W 093°55'0 0.0
2018-Jun-25 12:00N 29°60' W 093°55'0 0.0
2018-Jun-25 11:30N 29°60' W 093°55'0 0.0
2018-Jun-25 11:00N 29°60' W 093°55'0 0.0
2018-Jun-25 10:30N 29°60' W 093°55'0 0.0
2018-Jun-25 10:00N 29°60' W 093°55'0 0.0
2018-Jun-25 09:30N 29°60' W 093°55'0 0.0
2018-Jun-25 09:00N 29°60' W 093°55'0 0.0
2018-Jun-25 08:31N 29°60' W 093°55'0 0.0
2018-Jun-25 08:00N 29°60' W 093°55'0 0.0
2018-Jun-25 07:30N 29°60' W 093°55'0 0.0
2018-Jun-25 07:00N 29°60' W 093°55'0 0.0
2018-Jun-25 06:30N 29°60' W 093°55'0 0.0
2018-Jun-25 06:00N 29°60' W 093°55'0 0.0
2018-Jun-25 05:31N 29°60' W 093°55'0 0.0
2018-Jun-25 05:01N 29°60' W 093°55'0 0.0
2018-Jun-25 04:30N 29°60' W 093°55'0 0.0
2018-Jun-25 04:00N 29°60' W 093°55'0 0.0
2018-Jun-25 03:30N 29°60' W 093°55'0 0.0
2018-Jun-25 03:00N 29°60' W 093°55'1 1.4
2018-Jun-25 02:30N 29°59' W 093°54'3 5.5
2018-Jun-25 02:00N 29°58' W 093°51'3 6.4
2018-Jun-25 01:31N 29°55' W 093°53'3 5.8
2018-Jun-25 01:00N 29°53' W 093°56'3 5.1
2018-Jun-25 00:30N 29°50' W 093°57'2 4.4
2018-Jun-25 00:00N 29°49' W 093°59'0 0.0
2018-Jun-24 23:30N 29°49' W 093°59'0 0.0
2018-Jun-24 23:00N 29°49' W 093°59'0 0.1
2018-Jun-24 22:30N 29°49' W 093°59'0 0.9
2018-Jun-24 22:00N 29°49' W 093°60'3 5.8
2018-Jun-24 21:30N 29°47' W 094°02'3 5.7
2018-Jun-24 21:00N 29°45' W 094°04'3 5.6
2018-Jun-24 20:30N 29°43' W 094°07'3 6.1
2018-Jun-24 20:00N 29°41' W 094°10'3 5.8
2018-Jun-24 19:30N 29°40' W 094°13'3 5.6
2018-Jun-24 19:00N 29°39' W 094°16'3 5.4
2018-Jun-24 18:30N 29°38' W 094°18'3 5.0
2018-Jun-24 17:59N 29°37' W 094°21'3 5.4
2018-Jun-24 17:29N 29°36' W 094°24'25 2.1
2018-Jun-24 05:34N 29°30' W 094°52'1 7.5
2018-Jun-24 05:26N 29°31' W 094°53'4 7.7
2018-Jun-24 04:59N 29°34' W 094°55'4 7.9
2018-Jun-24 04:30N 29°37' W 094°57'4 8.0
2018-Jun-24 03:57N 29°41' W 094°59'4 0.3
2018-Jun-23 11:20N 29°44' W 095°03'0 0.0
2018-Jun-23 09:03N 29°44' W 095°03'0 0.1
2018-Jun-23 08:59N 29°44' W 095°03'0 0.1
2018-Jun-23 08:30N 29°44' W 095°03'0 0.0
2018-Jun-23 08:00N 29°44' W 095°03'0 0.0
2018-Jun-23 07:30N 29°44' W 095°03'0 0.0
2018-Jun-23 07:00N 29°44' W 095°03'0 0.0
2018-Jun-23 06:30N 29°44' W 095°03'0 0.0
2018-Jun-23 06:00N 29°44' W 095°03'0 0.0
2018-Jun-23 05:30N 29°44' W 095°03'0 0.0
2018-Jun-23 05:00N 29°44' W 095°03'2 4.3
2018-Jun-23 04:30N 29°46' W 095°04'2 3.4
2018-Jun-23 04:00N 29°46' W 095°06'0 0.0
2018-Jun-23 03:30N 29°46' W 095°06'0 0.0
2018-Jun-23 03:00N 29°46' W 095°06'0 0.0
2018-Jun-23 02:29N 29°46' W 095°06'0 0.0
2018-Jun-23 01:57N 29°46' W 095°06'0 0.0
2018-Jun-22 13:56N 29°46' W 095°06'0 0.0
2018-Jun-22 13:03N 29°46' W 095°06'0 0.0
2018-Jun-22 08:51N 29°46' W 095°06'0 0.0
2018-Jun-22 08:30N 29°46' W 095°06'0 0.0
2018-Jun-22 07:58N 29°46' W 095°06'0 0.0
2018-Jun-22 07:28N 29°46' W 095°06'0 0.0
2018-Jun-22 06:53N 29°46' W 095°06'0 0.0
2018-Jun-22 06:27N 29°46' W 095°06'0 0.0
2018-Jun-22 05:59N 29°46' W 095°06'0 0.0
2018-Jun-22 05:30N 29°46' W 095°06'0 0.0
2018-Jun-22 05:00N 29°46' W 095°06'0 0.0
2018-Jun-22 04:30N 29°46' W 095°06'0 0.0
2018-Jun-22 04:00N 29°46' W 095°06'0 0.0
2018-Jun-22 03:30N 29°46' W 095°06'0 0.0
2018-Jun-22 02:37N 29°46' W 095°06'0 0.0
2018-Jun-22 02:15N 29°46' W 095°06'0 0.0
2018-Jun-22 01:37N 29°46' W 095°06'0 0.0
2018-Jun-22 01:26N 29°46' W 095°06'0 0.0
2018-Jun-21 23:56N 29°46' W 095°06'0 0.0
2018-Jun-21 23:07N 29°46' W 095°06'0 0.0
2018-Jun-21 22:49N 29°46' W 095°06'0 0.3
2018-Jun-21 22:28N 29°47' W 095°06'0 0.1
2018-Jun-21 21:56N 29°47' W 095°06'0 0.1
2018-Jun-21 21:26N 29°47' W 095°06'0 0.0
2018-Jun-21 20:48N 29°47' W 095°06'0 0.0
2018-Jun-21 20:13N 29°47' W 095°06'0 0.0
2018-Jun-21 19:58N 29°47' W 095°06'0 0.0
2018-Jun-21 19:09N 29°47' W 095°06'0 0.0
2018-Jun-21 19:00N 29°47' W 095°06'0 0.0
2018-Jun-21 18:30N 29°47' W 095°06'0 0.0
2018-Jun-21 08:46N 29°46' W 095°06'0 0.0
2018-Jun-21 08:12N 29°46' W 095°06'0 0.0
2018-Jun-21 07:57N 29°46' W 095°06'5 3.2
2018-Jun-21 06:30N 29°44' W 095°02'3 6.6
2018-Jun-21 05:59N 29°41' W 094°59'1 2.0
2018-Jun-21 05:30N 29°41' W 095°00'0 0.0
2018-Jun-21 04:59N 29°41' W 095°00'0 0.0
2018-Jun-21 04:29N 29°41' W 095°00'0 0.0
2018-Jun-21 03:59N 29°41' W 095°00'0 0.0
2018-Jun-21 03:29N 29°41' W 095°00'0 0.0
2018-Jun-21 02:58N 29°41' W 095°00'0 0.0
2018-Jun-21 02:28N 29°41' W 095°00'0 0.0
2018-Jun-21 02:00N 29°41' W 095°00'0 0.0
2018-Jun-21 01:28N 29°41' W 095°00'0 0.0
2018-Jun-21 01:00N 29°41' W 095°00'0 0.0
2018-Jun-21 00:29N 29°41' W 095°00'0 0.0
2018-Jun-21 00:00N 29°41' W 095°00'0 0.0
2018-Jun-20 23:10N 29°41' W 095°00'0 0.0
2018-Jun-20 22:57N 29°41' W 095°00'0 0.0
2018-Jun-20 22:23N 29°41' W 095°00'0 0.0
2018-Jun-20 21:54N 29°41' W 095°00'0 0.0
2018-Jun-20 21:13N 29°41' W 095°00'0 0.0
2018-Jun-20 20:59N 29°41' W 095°00'0 0.0
2018-Jun-20 20:28N 29°41' W 095°00'0 0.6
2018-Jun-20 20:00N 29°41' W 095°00'0 0.7
2018-Jun-20 19:30N 29°41' W 094°60'4 0.4
2018-Jun-20 10:01N 29°44' W 095°03'0 0.0
2018-Jun-20 09:38N 29°44' W 095°03'0 0.0
2018-Jun-20 09:29N 29°44' W 095°03'4 0.5
2018-Jun-20 01:51N 29°46' W 095°07'0 0.0
2018-Jun-20 01:30N 29°46' W 095°07'0 0.0
2018-Jun-20 01:00N 29°46' W 095°07'5 0.7
2018-Jun-19 17:54N 29°44' W 095°02'3 7.2
2018-Jun-19 17:30N 29°42' W 094°60'4 7.8
2018-Jun-19 17:00N 29°38' W 094°58'3 5.2
2018-Jun-19 16:30N 29°37' W 095°00'0 0.0
2018-Jun-19 16:00N 29°37' W 095°00'0 0.0
2018-Jun-19 15:30N 29°37' W 095°00'0 0.0
2018-Jun-19 15:00N 29°37' W 095°00'0 0.0
2018-Jun-19 14:30N 29°37' W 095°00'0 0.0
2018-Jun-19 14:00N 29°37' W 095°00'0 0.0
2018-Jun-19 13:30N 29°37' W 095°00'0 0.0
2018-Jun-19 13:00N 29°37' W 095°00'0 0.0
2018-Jun-19 12:30N 29°37' W 095°00'0 0.0
2018-Jun-19 12:00N 29°37' W 095°00'0 0.0
2018-Jun-19 11:30N 29°37' W 095°00'0 0.0
2018-Jun-19 11:00N 29°37' W 095°00'0 0.0
2018-Jun-19 10:30N 29°37' W 095°00'0 0.0
2018-Jun-19 10:00N 29°37' W 095°00'0 0.0
2018-Jun-19 09:30N 29°37' W 095°00'0 0.0
2018-Jun-19 09:00N 29°37' W 095°00'0 0.0
2018-Jun-19 08:28N 29°37' W 095°00'0 0.0
2018-Jun-19 08:00N 29°37' W 095°00'0 0.0
2018-Jun-19 07:29N 29°37' W 095°00'0 0.0
2018-Jun-19 06:59N 29°37' W 095°00'0 0.0
2018-Jun-19 06:30N 29°37' W 095°00'0 0.0
2018-Jun-19 06:00N 29°37' W 095°00'0 0.0
2018-Jun-19 05:28N 29°37' W 095°00'0 0.0
2018-Jun-19 05:00N 29°37' W 095°00'0 0.0
2018-Jun-19 04:30N 29°37' W 095°00'0 0.0
2018-Jun-19 04:00N 29°37' W 095°00'0 0.0
2018-Jun-19 03:30N 29°37' W 095°00'0 0.0
2018-Jun-19 03:00N 29°37' W 095°00'0 0.0
2018-Jun-19 02:30N 29°37' W 095°00'0 0.0
2018-Jun-19 01:58N 29°37' W 095°00'0 0.0
2018-Jun-19 01:30N 29°37' W 095°00'0 0.0
2018-Jun-19 01:00N 29°37' W 095°00'0 0.0
2018-Jun-19 00:30N 29°37' W 095°00'0 0.1
2018-Jun-19 00:00N 29°37' W 095°00'0 0.6
2018-Jun-18 23:30N 29°37' W 095°01'0 0.0
2018-Jun-18 23:00N 29°37' W 095°01'0 0.0
2018-Jun-18 22:30N 29°37' W 095°01'0 0.0
2018-Jun-18 22:00N 29°37' W 095°01'1 2.7
2018-Jun-18 21:30N 29°37' W 094°59'2 3.9
2018-Jun-18 21:00N 29°38' W 094°58'3 6.3
2018-Jun-18 20:30N 29°41' W 094°59'  
2018-Jun-16 04:55N 29°44' W 095°02'3 6.9
2018-Jun-16 04:30N 29°42' W 094°60'4 7.6
2018-Jun-16 04:00N 29°38' W 094°58'2 4.5
2018-Jun-16 03:30N 29°37' W 094°60'0 0.7
2018-Jun-16 03:00N 29°37' W 095°00'0 0.0
2018-Jun-16 02:30N 29°37' W 095°00'0 0.0
2018-Jun-16 02:00N 29°37' W 095°00'0 0.0
2018-Jun-16 01:30N 29°37' W 095°00'0 0.0
2018-Jun-16 01:00N 29°37' W 095°00'0 0.0
2018-Jun-16 00:29N 29°37' W 095°00'0 0.0
2018-Jun-16 00:00N 29°37' W 095°00'0 0.0
2018-Jun-15 23:30N 29°37' W 095°00'0 0.0
2018-Jun-15 23:00N 29°37' W 095°00'0 0.0
2018-Jun-15 22:30N 29°37' W 095°00'0 0.0
2018-Jun-15 22:00N 29°37' W 095°00'0 0.0
2018-Jun-15 21:30N 29°37' W 095°00'0 0.0
2018-Jun-15 20:57N 29°37' W 095°00'0 0.0
2018-Jun-15 20:29N 29°37' W 095°00'0 0.0
2018-Jun-15 20:00N 29°37' W 095°00'0 0.0
2018-Jun-15 19:30N 29°37' W 095°00'0 0.0
2018-Jun-15 19:00N 29°37' W 095°00'0 0.0
2018-Jun-15 18:30N 29°37' W 095°00'0 0.0
2018-Jun-15 18:00N 29°37' W 095°00'0 0.0
2018-Jun-15 17:30N 29°37' W 095°00'  

Dump ship's entire track history